Share

Grand Forks Air Force Base, ND

Grand Forks Air Force Base (KRDR) Elev 912 ft | 47.96 °N, 97.40 °W | Change Station
Active Advisory: Flood Warning

Current weather conditions updated 34 minutes ago

Overcast
Overcast
50 °F
Feels Like 50 °F
N
25
Wind Variable Wind from SE
Gusts 34 mph
Sunrise 6:34 AM
Sunset 8:24 PM
Moon Waning Gibbous

Tomorrow is forecast to be Much Warmer than today.

Pressure 30.09 in
Visibility 10.0 miles
Clouds Overcast 6000 ft
Dew Point 28 °F
Humidity 42%
Rainfall 0.00 in
Snow Depth Not available.
UV 1 out of 16
Pollen 9.00 out of 12
Air Quality Not available.
Flu Activity Sporadic
METAR KRDR 182158Z AUTO 13022G30KT 10SM OVC060 10/M02 A3005 RMK AO2 PK WND 12030/24 SLP189 T01031022

More Conditions Fewer Conditions

Pressure 30.09 in
Visibility 10.0 miles
Clouds Overcast 6000 ft
Dew Point 28 °F
Humidity 42%
Rainfall 0.00 in
Snow Depth Not available.
UV 1 out of 16
Pollen 9.00 out of 12
Air Quality Not available.
Flu Activity Sporadic
METAR KRDR 182158Z AUTO 13022G30KT 10SM OVC060 10/M02 A3005 RMK AO2 PK WND 12030/24 SLP189 T01031022

More Conditions Fewer Conditions

10-Day Weather Forecast

Almanac

Astronomy

Apr. 18, 2014 Rise Set
Actual Time 6:34 AM CDT 8:24 PM CDT
Civil Twilight 6:01 AM CDT 8:57 PM CDT
Nautical Twilight 5:21 AM CDT 9:37 PM CDT
Astronomical Twilight 4:36 AM CDT 10:22 PM CDT
Moon No Moon Rise 8:47 AM CDT
Length of Visible Light 14h 55m
Length of Day
13h 49m
Tomorrow will be 3m 18s longer.
Waning Gibbous, 85% of the Moon is Illuminated
Today
Waning Gibbous
Apr 22
Last Quarter
Apr 29
New
May 6
First Quarter
May 14
Full

Today's Extremes

State Highs State Lows

Community

  • Spring Chickadee
    Spring Chickadee
  • What's for Lunch?
    What's for Lunch?
  • SUNRISE THROUGH THE TREES.
    SUNRISE THROUGH THE TREES.
  • Dog Wood Blossoms
    Dog Wood Blossoms
  • Morning Light
    Morning Light

WunderPhotos

Upload Photos

1,702,527 photos uploaded!

WunderBlogs® & News

Nearby

Snow Depth

Station Depth Elevation
No new snow has been reported.

Coastal Water Temperatures

Place Temperature
No Stations Reporting

Earthquake Activity

City Distance Mag. Time & Date
No recent earthquake activity has been reported nearby.
Minimum magnitude displayed is 2.5.

Nearby Weather Stations

Station Location Temp. Windchill Dew Point Humidity Wind Precip. Elev Updated Type
Grand Forks, ND 50.0 °F 45 °F 28 °F 43% North  at  15.2 mph 0.00 in / hr 827 ft 5:32 PM CDT Rapid Fire

Show More Stations Show Fewer Stations

What do you think?

We're not finished. Please let us know what you like, what you don't like, and what you are still missing.